Time;durP1;ratioP1;P1;durP2;ratioP2;P2;SDS_P1;SDS_P2;PMS_P1;PMS_P2;Temp;Humidity;BMP_temperature;BMP_pressure;BME280_temperature;BME280_humidity;BME280_pressure;Samples;Min_cycle;Max_cycle;Signal;HPM_P1;HPM_P2
2022/01/28 00:01:20;;;;;;;11.90;3.00;;;;;;;;;;5072593;28;20515;-75
2022/01/28 00:03:46;;;;;;;15.52;3.10;;;;;;;;;;5072331;28;20434;-75
2022/01/28 00:06:13;;;;;;;11.55;2.92;;;;;;;;;;5072868;28;20428;-76
2022/01/28 00:08:39;;;;;;;13.00;3.50;;;;;;;;;;5074553;28;20474;-75
2022/01/28 00:11:05;;;;;;;19.07;3.60;;;;;;;;;;5073092;28;20423;-75
2022/01/28 00:13:37;;;;;;;18.75;4.05;;;;;;;;;;5073505;28;20437;-75
2022/01/28 00:40:23;;;;;;;15.47;3.53;;;;;;;;;;5072505;28;20528;-75
2022/01/28 00:42:49;;;;;;;16.45;3.70;;;;;;;;;;5072871;28;20527;-74
2022/01/28 00:45:15;;;;;;;15.90;3.85;;;;;;;;;;5051308;28;20431;-75
2022/01/28 00:47:41;;;;;;;18.27;3.92;;;;;;;;;;5072471;28;20423;-75
2022/01/28 00:50:07;;;;;;;18.95;3.45;;;;;;;;;;5072207;28;20427;-75
2022/01/28 00:52:33;;;;;;;18.05;3.90;;;;;;;;;;5073280;28;22598;-75
2022/01/28 00:55:00;;;;;;;18.65;4.03;;;;;;;;;;5070981;28;20419;-75
2022/01/28 00:57:26;;;;;;;25.27;4.40;;;;;;;;;;5075527;28;20532;-76
2022/01/28 00:59:52;;;;;;;23.13;4.35;;;;;;;;;;5074414;28;20427;-75
2022/01/28 01:02:18;;;;;;;20.52;4.78;;;;;;;;;;5055864;28;20411;-75
2022/01/28 01:04:44;;;;;;;17.38;4.38;;;;;;;;;;5074483;28;20442;-76
2022/01/28 01:07:10;;;;;;;29.65;4.80;;;;;;;;;;5074333;28;20418;-75
2022/01/28 01:09:36;;;;;;;22.30;4.25;;;;;;;;;;5071343;28;20430;-76
2022/01/28 01:12:03;;;;;;;23.15;4.53;;;;;;;;;;5070968;28;20910;-75
2022/01/28 01:14:29;;;;;;;23.35;4.93;;;;;;;;;;5072188;28;20510;-75
2022/01/28 01:19:27;;;;;;;18.40;3.90;;;;;;;;;;5077040;28;20418;-76
2022/01/28 01:21:57;;;;;;;17.42;4.05;;;;;;;;;;5076194;28;20434;-75
2022/01/28 01:24:25;;;;;;;17.23;4.20;;;;;;;;;;5076669;28;20408;-76
2022/01/28 01:26:51;;;;;;;15.02;3.58;;;5.60;99.90;;;;;;5092805;28;20435;-76
2022/01/28 01:29:20;;;;;;;19.77;4.30;;;;;;;;;;5076955;28;20408;-75
2022/01/28 01:31:47;;;;;;;19.63;4.00;;;5.70;99.90;;;;;;5076968;28;20408;-76
2022/01/28 01:34:19;;;;;;;19.90;4.13;;;5.70;99.90;;;;;;5077157;28;20505;-76
2022/01/28 01:36:46;;;;;;;18.45;4.45;;;;;;;;;;5077041;28;21144;-75
2022/01/28 01:39:15;;;;;;;18.90;4.22;;;;;;;;;;5075491;28;20850;-76
2022/01/28 01:41:47;;;;;;;23.33;4.90;;;;;;;;;;5076738;28;20467;-76
2022/01/28 01:44:30;;;;;;;19.70;4.50;;;;;;;;;;5075265;28;20641;-75
2022/01/28 01:52:53;;;;;;;20.27;4.40;;;;;;;;;;5071896;28;20451;-75
2022/01/28 01:55:19;;;;;;;22.33;4.27;;;;;;;;;;5058571;28;20427;-75
2022/01/28 01:57:45;;;;;;;24.77;5.80;;;;;;;;;;5077406;28;20428;-75
2022/01/28 02:00:13;;;;;;;19.63;4.45;;;;;;;;;;5042927;28;20423;-75
2022/01/28 02:02:39;;;;;;;15.70;4.35;;;;;;;;;;5059099;28;20449;-75
2022/01/28 02:05:05;;;;;;;22.30;4.73;;;;;;;;;;5072559;28;20467;-76
2022/01/28 02:07:31;;;;;;;21.02;4.20;;;;;;;;;;5076164;28;20427;-75
2022/01/28 02:09:57;;;;;;;22.08;4.68;;;;;;;;;;5058249;28;20953;-76
2022/01/28 02:12:23;;;;;;;26.17;4.35;;;;;;;;;;5077043;28;20862;-76
2022/01/28 02:14:50;;;;;;;19.52;4.30;;;;;;;;;;5076729;28;20420;-76
2022/01/28 02:17:16;;;;;;;22.50;4.57;;;;;;;;;;5078853;28;20925;-76
2022/01/28 02:19:42;;;;;;;21.90;4.40;;;;;;;;;;5077894;28;20493;-76
2022/01/28 02:22:09;;;;;;;23.63;4.43;;;;;;;;;;5060989;28;20510;-76
2022/01/28 02:24:42;;;;;;;23.67;4.95;;;;;;;;;;5074032;28;20426;-76
2022/01/28 02:27:10;;;;;;;22.90;4.50;;;;;;;;;;5060616;28;20576;-75
2022/01/28 02:29:36;;;;;;;22.63;4.47;;;;;;;;;;5073911;28;20431;-75
2022/01/28 02:32:04;;;;;;;22.55;4.00;;;;;;;;;;5074723;28;20434;-76
2022/01/28 02:34:31;;;;;;;23.15;4.95;;;;;;;;;;5076388;28;20961;-76
2022/01/28 02:36:57;;;;;;;19.60;4.53;;;;;;;;;;5074137;28;20543;-77
2022/01/28 02:39:23;;;;;;;23.45;5.00;;;5.80;99.90;;;;;;5075680;28;20420;-77
2022/01/28 02:41:53;;;;;;;26.33;4.93;;;;;;;;;;5074213;28;20436;-77
2022/01/28 02:44:47;;;;;;;22.05;4.22;;;;;;;;;;5072840;28;20471;-76
2022/01/28 02:47:12;;;;;;;25.43;5.20;;;;;;;;;;5075035;28;20444;-77
2022/01/28 02:49:38;;;;;;;21.67;4.90;;;;;;;;;;5076081;28;20459;-77
2022/01/28 02:52:05;;;;;;;26.63;5.22;;;;;;;;;;5075720;28;20443;-77
2022/01/28 02:54:36;;;;;;;22.52;4.90;;;;;;;;;;5073924;28;20491;-76
2022/01/28 02:57:05;;;;;;;28.40;5.25;;;;;;;;;;5075374;28;20464;-76
2022/01/28 02:59:32;;;;;;;27.55;5.22;;;;;;;;;;5057917;28;20462;-76
2022/01/28 03:01:58;;;;;;;25.45;5.45;;;;;;;;;;5075340;28;20432;-77
2022/01/28 03:05:01;;;;;;;24.52;4.82;;;;;;;;;;5077623;28;20856;-76
2022/01/28 03:07:10;;;;;;;23.60;5.47;;;;;;;;;;5070158;28;20506;-76
2022/01/28 03:09:52;;;;;;;24.60;5.47;;;;;;;;;;5075765;28;21124;-76
2022/01/28 03:12:22;;;;;;;26.50;5.40;;;;;;;;;;5071965;28;20424;-73
2022/01/28 03:18:09;;;;;;;22.27;4.90;;;;;;;;;;5058677;28;20435;-76
2022/01/28 03:20:35;;;;;;;19.67;5.38;;;;;;;;;;5071672;28;20435;-75
2022/01/28 03:23:01;;;;;;;22.95;5.05;;;;;;;;;;5069698;28;21353;-74
2022/01/28 03:25:28;;;;;;;26.88;5.78;;;;;;;;;;5056408;28;20435;-75
2022/01/28 03:27:56;;;;;;;20.80;5.05;;;;;;;;;;5074098;28;20423;-76
2022/01/28 03:30:23;;;;;;;22.63;5.40;;;6.10;99.90;;;;;;5075527;28;22041;-76
2022/01/28 03:32:49;;;;;;;20.92;4.53;;;;;;;;;;5041922;28;20862;-75
2022/01/28 03:35:17;;;;;;;23.10;5.15;;;;;;;;;;5075600;28;20448;-75
2022/01/28 03:37:43;;;;;;;24.27;4.40;;;;;;;;;;5073747;28;20418;-75
2022/01/28 03:40:09;;;;;;;20.40;4.50;;;;;;;;;;5078887;28;20501;-76
2022/01/28 03:42:36;;;;;;;23.92;5.38;;;;;;;;;;5065485;28;20420;-76
2022/01/28 03:45:03;;;;;;;19.65;4.82;;;;;;;;;;5074917;28;20419;-75
2022/01/28 03:47:29;;;;;;;25.83;5.00;;;;;;;;;;5076186;28;20596;-76
2022/01/28 03:49:55;;;;;;;19.92;4.50;;;;;;;;;;5075296;28;20422;-75
2022/01/28 03:52:21;;;;;;;19.88;4.43;;;;;;;;;;5074622;28;20408;-76
2022/01/28 03:54:47;;;;;;;23.73;5.05;;;;;;;;;;5074540;28;20428;-76
2022/01/28 03:57:14;;;;;;;23.15;4.30;;;;;;;;;;5059323;28;20442;-76
2022/01/28 03:59:40;;;;;;;20.60;4.88;;;;;;;;;;5057262;28;20426;-76
2022/01/28 04:02:06;;;;;;;22.92;4.80;;;;;;;;;;5070583;28;20437;-76
2022/01/28 04:12:39;;;;;;;19.48;4.93;;;;;;;;;;5074162;28;20432;-77
2022/01/28 04:18:07;;;;;;;22.00;5.00;;;;;;;;;;5033757;28;20472;-76
2022/01/28 04:20:33;;;;;;;20.20;4.95;;;;;;;;;;5061459;28;20502;-76
2022/01/28 04:22:59;;;;;;;26.33;5.82;;;;;;;;;;5058338;28;20431;-76
2022/01/28 04:25:25;;;;;;;25.95;5.45;;;;;;;;;;5048434;28;20436;-76
2022/01/28 04:27:51;;;;;;;24.38;5.15;;;;;;;;;;5075030;28;20462;-76
2022/01/28 04:30:17;;;;;;;24.17;5.25;;;;;;;;;;5074551;28;20435;-76
2022/01/28 04:32:46;;;;;;;25.30;5.03;;;;;;;;;;5057517;28;20423;-76
2022/01/28 04:35:12;;;;;;;25.60;5.63;;;;;;;;;;5079993;28;20436;-76
2022/01/28 04:37:50;;;;;;;19.90;4.72;;;;;;;;;;5056843;28;20787;-76
2022/01/28 04:40:33;;;;;;;23.75;4.85;;;;;;;;;;5074805;28;20427;-77
2022/01/28 04:43:25;;;;;;;26.03;5.23;;;;;;;;;;5068869;28;20537;-77
2022/01/28 04:51:14;;;;;;;19.80;4.97;;;;;;;;;;5073975;28;20426;-76
2022/01/28 04:58:58;;;;;;;26.42;5.75;;;;;;;;;;5077774;28;20422;-76
2022/01/28 05:27:37;;;;;;;24.65;5.38;;;;;;;;;;5082273;28;20479;-76
2022/01/28 05:30:04;;;;;;;25.25;5.18;;;;;;;;;;5077913;28;20827;-77
2022/01/28 05:32:31;;;;;;;22.67;5.53;;;;;;;;;;5076899;28;20461;-76
2022/01/28 05:34:57;;;;;;;27.43;6.20;;;;;;;;;;5060463;28;20469;-76
2022/01/28 05:37:23;;;;;;;22.70;5.47;;;;;;;;;;5074945;28;20411;-76
2022/01/28 05:39:49;;;;;;;27.75;5.80;;;;;;;;;;5078003;28;20424;-77
2022/01/28 05:42:15;;;;;;;23.48;6.20;;;;;;;;;;5076217;28;20476;-76
2022/01/28 05:44:41;;;;;;;26.73;5.93;;;;;;;;;;5077643;28;20427;-76
2022/01/28 05:47:07;;;;;;;24.97;6.17;;;;;;;;;;5077288;28;20427;-76
2022/01/28 05:49:35;;;;;;;22.25;5.30;;;;;;;;;;5060769;28;20802;-76
2022/01/28 05:52:01;;;;;;;21.33;5.10;;;;;;;;;;5075620;28;20423;-76
2022/01/28 05:54:27;;;;;;;24.25;5.40;;;;;;;;;;5058092;28;20434;-76
2022/01/28 05:56:53;;;;;;;27.90;4.88;;;;;;;;;;5078269;28;20438;-75
2022/01/28 05:59:20;;;;;;;23.42;5.20;;;;;;;;;;5077511;28;20416;-75
2022/01/28 06:01:46;;;;;;;24.25;5.10;;;;;;;;;;5059476;28;20438;-76
2022/01/28 06:04:12;;;;;;;23.13;4.78;;;;;;;;;;5074860;28;20488;-76
2022/01/28 06:06:38;;;;;;;25.88;4.93;;;;;;;;;;5057463;28;20419;-76
2022/01/28 06:09:04;;;;;;;22.60;4.60;;;;;;;;;;5076460;28;20431;-76
2022/01/28 06:11:30;;;;;;;31.10;5.60;;;;;;;;;;5077509;28;20451;-76
2022/01/28 06:13:56;;;;;;;23.63;5.15;;;;;;;;;;5076686;28;20431;-76
2022/01/28 06:16:22;;;;;;;20.40;4.53;;;;;;;;;;5080685;28;20433;-76
2022/01/28 06:18:48;;;;;;;21.00;4.55;;;;;;;;;;5076652;28;20415;-76
2022/01/28 06:21:16;;;;;;;22.40;4.80;;;;;;;;;;5078005;28;20956;-76
2022/01/28 06:23:42;;;;;;;20.63;4.60;;;;;;;;;;5075169;28;20427;-76
2022/01/28 06:26:08;;;;;;;20.15;4.35;;;;;;;;;;5075360;28;20549;-76
2022/01/28 06:28:34;;;;;;;25.98;5.05;;;;;;;;;;5077526;28;20860;-75
2022/01/28 06:31:00;;;;;;;29.20;5.72;;;;;;;;;;5057922;28;20482;-77
2022/01/28 06:33:26;;;;;;;21.30;4.38;;;;;;;;;;5076373;28;20954;-75
2022/01/28 06:35:52;;;;;;;29.00;5.75;;;;;;;;;;5074713;28;20416;-77
2022/01/28 06:38:18;;;;;;;23.33;5.05;;;;;;;;;;5076641;28;20435;-76
2022/01/28 06:40:45;;;;;;;27.27;5.80;;;;;;;;;;5059353;28;20439;-76
2022/01/28 06:43:12;;;;;;;20.90;5.57;;;;;;;;;;5076521;28;20426;-75
2022/01/28 06:45:41;;;;;;;24.52;5.35;;;;;;;;;;5074763;28;20502;-75
2022/01/28 06:48:10;;;;;;;24.88;5.47;;;;;;;;;;5058026;28;20514;-76
2022/01/28 06:50:37;;;;;;;24.08;5.53;;;;;;;;;;5075714;28;20430;-76
2022/01/28 06:53:03;;;;;;;25.13;5.18;;;;;;;;;;5075640;28;20431;-75
2022/01/28 06:55:29;;;;;;;24.53;5.20;;;;;;;;;;5058290;28;20466;-76
2022/01/28 06:57:56;;;;;;;22.27;4.78;;;;;;;;;;5042138;28;20447;-77
2022/01/28 07:00:22;;;;;;;23.60;4.80;;;;;;;;;;5074916;28;20442;-76
2022/01/28 07:02:50;;;;;;;23.52;5.07;;;;;;;;;;5074943;28;20404;-76
2022/01/28 07:05:16;;;;;;;25.40;5.05;;;;;;;;;;5059842;28;20514;-76
2022/01/28 07:07:42;;;;;;;22.77;4.78;;;;;;;;;;5074877;28;20431;-75
2022/01/28 07:10:09;;;;;;;19.60;4.85;;;;;;;;;;5074846;28;20432;-76
2022/01/28 07:12:35;;;;;;;17.30;4.28;;;;;;;;;;5075122;28;20509;-76
2022/01/28 07:15:01;;;;;;;24.27;5.20;;;;;;;;;;5072553;28;20427;-76
2022/01/28 07:17:27;;;;;;;26.13;4.95;;;;;;;;;;5076580;28;20582;-76
2022/01/28 07:19:53;;;;;;;22.65;4.40;;;;;;;;;;5039564;28;21055;-77
2022/01/28 07:22:19;;;;;;;24.88;4.88;;;;;;;;;;5075599;28;20454;-77
2022/01/28 07:24:45;;;;;;;20.50;4.60;;;;;;;;;;5073886;28;20478;-77
2022/01/28 07:27:11;;;;;;;20.17;4.37;;;;;;;;;;5076626;28;20431;-76
2022/01/28 07:29:37;;;;;;;25.42;4.60;;;;;;;;;;5075361;28;20424;-77
2022/01/28 07:32:04;;;;;;;21.00;4.53;;;;;;;;;;5076417;28;21723;-77
2022/01/28 07:34:31;;;;;;;23.38;4.70;;;;;;;;;;5057659;28;20423;-76
2022/01/28 07:36:57;;;;;;;30.58;5.13;;;;;;;;;;5056913;28;20420;-76
2022/01/28 07:39:23;;;;;;;25.52;4.95;;;;;;;;;;5054694;28;20432;-76
2022/01/28 07:41:49;;;;;;;26.52;5.13;;;;;;;;;;5058085;28;20435;-77
2022/01/28 07:44:15;;;;;;;20.48;4.35;;;;;;;;;;5077476;28;20564;-77
2022/01/28 07:46:41;;;;;;;23.90;4.75;;;;;;;;;;5057643;28;20427;-77
2022/01/28 07:49:07;;;;;;;25.70;4.80;;;;;;;;;;5073339;28;20522;-77
2022/01/28 07:51:35;;;;;;;21.98;4.40;;;;;;;;;;5077357;28;20480;-77
2022/01/28 07:54:02;;;;;;;22.58;4.95;;;;;;;;;;5059835;28;20518;-77
2022/01/28 07:56:28;;;;;;;27.00;4.85;;;;;;;;;;5058113;28;20431;-77
2022/01/28 07:58:54;;;;;;;20.83;4.20;;;;;;;;;;5073933;28;20477;-78
2022/01/28 08:01:20;;;;;;;21.83;4.70;;;;;;;;;;5072078;28;20446;-77
2022/01/28 08:03:46;;;;;;;21.63;4.25;;;;;;;;;;5058153;28;20427;-77
2022/01/28 08:06:12;;;;;;;22.88;4.57;;;;;;;;;;5078478;28;20423;-79
2022/01/28 08:08:38;;;;;;;25.23;4.40;;;;;;;;;;5059941;28;20860;-78
2022/01/28 08:11:04;;;;;;;21.33;4.33;;;;;;;;;;5079895;28;20416;-77
2022/01/28 08:13:30;;;;;;;24.25;4.60;;;;;;;;;;5056091;28;20487;-78
2022/01/28 08:15:56;;;;;;;28.65;5.50;;;;;;;;;;5075362;28;20493;-78
2022/01/28 08:18:23;;;;;;;25.35;5.30;;;;;;;;;;5074069;28;20420;-77
2022/01/28 08:20:49;;;;;;;20.85;4.38;;;;;;;;;;5079088;28;20431;-78
2022/01/28 08:23:15;;;;;;;23.55;4.75;;;;;;;;;;5055849;28;20424;-77
2022/01/28 08:25:41;;;;;;;29.05;5.07;;;;;;;;;;5062139;28;20414;-78
2022/01/28 08:28:07;;;;;;;23.17;4.63;;;;;;;;;;5077977;28;20579;-79
2022/01/28 08:30:38;;;;;;;22.15;4.38;;;;;;;;;;5060601;28;20455;-80
2022/01/28 08:33:05;;;;;;;28.17;4.70;;;;;;;;;;5079393;28;20986;-79
2022/01/28 08:35:32;;;;;;;29.63;4.97;;;;;;;;;;5076648;28;20432;-80
2022/01/28 08:37:59;;;;;;;25.38;5.22;;;;;;;;;;5077930;28;20461;-80
2022/01/28 08:40:27;;;;;;;25.92;5.30;;;;;;;;;;5078050;28;20514;-79
2022/01/28 08:42:54;;;;;;;29.10;4.88;;;;;;;;;;5061988;28;20459;-79
2022/01/28 08:45:20;;;;;;;24.27;5.30;;;;;;;;;;5077253;28;20419;-80
2022/01/28 08:47:47;;;;;;;23.17;4.97;;;;;;;;;;5077839;28;20450;-80
2022/01/28 08:50:13;;;;;;;27.33;5.00;;;;;;;;;;5078387;28;20416;-78
2022/01/28 08:52:39;;;;;;;25.15;6.03;;;;;;;;;;5077538;28;20511;-78
2022/01/28 08:55:05;;;;;;;23.30;5.00;;;;;;;;;;5080202;28;21021;-78
2022/01/28 08:57:32;;;;;;;20.00;4.85;;;;;;;;;;5078482;28;20934;-78
2022/01/28 08:59:58;;;;;;;26.38;5.63;;;;;;;;;;5059696;28;20470;-80
2022/01/28 09:02:24;;;;;;;26.77;5.78;;;;;;;;;;5061266;28;20490;-80
2022/01/28 09:04:50;;;;;;;24.45;5.28;;;;;;;;;;5077584;28;20412;-81
2022/01/28 09:07:19;;;;;;;27.42;6.22;;;;;;;;;;5078666;28;20681;-79
2022/01/28 09:09:51;;;;;;;28.37;5.37;;;;;;;;;;5058465;28;20441;-80
2022/01/28 09:15:19;;;;;;;24.27;5.57;;;;;;;;;;5034757;28;20460;-80
2022/01/28 09:17:45;;;;;;;27.17;5.97;;;;;;;;;;5040276;28;20427;-80
2022/01/28 09:20:12;;;;;;;29.20;5.28;;;;;;;;;;5043510;28;20499;-81
2022/01/28 09:22:37;;;;;;;27.90;5.70;;;5.60;99.90;;;;;;5054987;28;20439;-82
2022/01/28 09:25:04;;;;;;;25.13;5.23;;;;;;;;;;5045759;28;20426;-83
2022/01/28 09:27:30;;;;;;;25.92;5.65;;;;;;;;;;5081344;28;20495;-82
2022/01/28 09:29:56;;;;;;;25.63;5.78;;;;;;;;;;5080239;28;20435;-82
2022/01/28 09:32:22;;;;;;;21.15;4.80;;;;;;;;;;5054728;28;20431;-81
2022/01/28 09:34:48;;;;;;;29.17;5.37;;;;;;;;;;5078603;28;21404;-80
2022/01/28 09:37:14;;;;;;;28.70;5.55;;;;;;;;;;5076725;28;20431;-80
2022/01/28 09:39:45;;;;;;;26.25;5.15;;;;;;;;;;5077946;28;20419;-79
2022/01/28 09:42:16;;;;;;;31.87;5.37;;;;;;;;;;5075828;28;20431;-79
2022/01/28 09:44:43;;;;;;;26.88;5.38;;;;;;;;;;5079008;28;20461;-82
2022/01/28 09:47:11;;;;;;;24.63;5.15;;;;;;;;;;5076477;28;20482;-81
2022/01/28 09:49:37;;;;;;;23.40;5.03;;;;;;;;;;5077219;28;20433;-79
2022/01/28 09:52:04;;;;;;;26.38;5.68;;;;;;;;;;5060080;28;20496;-79
2022/01/28 09:54:30;;;;;;;27.20;5.18;;;;;;;;;;5059907;28;20436;-80
2022/01/28 09:56:57;;;;;;;20.27;4.85;;;;;;;;;;5076407;28;20462;-81
2022/01/28 09:59:23;;;;;;;25.17;4.75;;;;;;;;;;5075635;28;20421;-79
2022/01/28 10:01:50;;;;;;;26.35;5.50;;;;;;;;;;5077527;28;20420;-81
2022/01/28 10:04:17;;;;;;;26.40;5.13;;;;;;;;;;5058933;28;20416;-79
2022/01/28 10:06:44;;;;;;;25.23;5.45;;;;;;;;;;5061276;28;20497;-81
2022/01/28 10:09:11;;;;;;;23.95;5.40;;;;;;;;;;5058912;28;20507;-79
2022/01/28 10:11:38;;;;;;;26.13;4.88;;;;;;;;;;5084696;28;20427;-78
2022/01/28 10:14:11;;;;;;;21.70;4.70;;;6.50;99.90;;;;;;5079422;28;20968;-79
2022/01/28 10:16:37;;;;;;;28.58;5.18;;;;;;;;;;5078393;28;20510;-81
2022/01/28 10:19:07;;;;;;;24.50;4.72;;;;;;;;;;5060867;28;20472;-79
2022/01/28 10:21:33;;;;;;;27.70;4.95;;;;;;;;;;5075675;28;20435;-79
2022/01/28 10:23:59;;;;;;;24.52;5.40;;;;;;;;;;5058316;28;20428;-81
2022/01/28 10:26:30;;;;;;;23.60;4.68;;;;;;;;;;5060613;28;20830;-81
2022/01/28 10:28:56;;;;;;;23.83;5.07;;;;;;;;;;5051272;28;20435;-81
2022/01/28 10:31:22;;;;;;;25.08;5.15;;;;;;;;;;5077265;28;20446;-85
2022/01/28 10:33:48;;;;;;;30.48;5.50;;;;;;;;;;5075772;28;20424;-81
2022/01/28 10:36:24;;;;;;;25.27;5.78;;;;;;;;;;5057250;28;20433;-82
2022/01/28 10:38:56;;;;;;;30.27;5.77;;;;;;;;;;5058268;28;20447;-80
2022/01/28 10:41:25;;;;;;;26.25;5.35;;;;;;;;;;5055017;28;20419;-81
2022/01/28 10:43:52;;;;;;;24.45;4.60;;;;;;;;;;5061211;28;20424;-80
2022/01/28 10:46:23;;;;;;;26.83;5.15;;;;;;;;;;5060429;28;20938;-82
2022/01/28 10:48:50;;;;;;;25.05;5.38;;;;;;;;;;5060685;28;20447;-81
2022/01/28 10:51:20;;;;;;;22.92;5.15;;;;;;;;;;5057459;28;20417;-82
2022/01/28 10:54:05;;;;;;;28.13;5.43;;;;;;;;;;5077567;28;20412;-84
2022/01/28 10:56:45;;;;;;;26.70;5.40;;;;;;;;;;5051101;28;20433;-82
2022/01/28 10:59:12;;;;;;;24.70;5.70;;;;;;;;;;5058788;28;20428;-81
2022/01/28 11:01:38;;;;;;;23.70;5.55;;;;;;;;;;5040632;28;20496;-83
2022/01/28 11:04:04;;;;;;;25.10;6.15;;;;;;;;;;5042701;28;20419;-81
2022/01/28 11:06:36;;;;;;;24.92;5.55;;;;;;;;;;5075468;28;20450;-79
2022/01/28 11:09:02;;;;;;;21.55;5.40;;;;;;;;;;5074859;28;20443;-80
2022/01/28 11:11:28;;;;;;;27.02;6.47;;;;;;;;;;5076058;28;20427;-79
2022/01/28 11:13:54;;;;;;;21.58;5.10;;;;;;;;;;5088196;28;20425;-80
2022/01/28 11:16:20;;;;;;;28.25;5.78;;;;;;;;;;5058216;28;20462;-81
2022/01/28 11:18:46;;;;;;;22.42;4.80;;;;;;;;;;5042898;28;20470;-80
2022/01/28 11:21:16;;;;;;;31.27;5.75;;;;;;;;;;5057685;28;21296;-83
2022/01/28 11:23:45;;;;;;;27.20;5.10;;;;;;;;;;5026170;28;20425;-82
2022/01/28 11:26:14;;;;;;;22.98;4.78;;;;;;;;;;5075145;28;20493;-82
2022/01/28 11:28:44;;;;;;;20.08;4.65;;;;;;;;;;5072568;28;20487;-81
2022/01/28 11:31:11;;;;;;;28.20;4.90;;;;;;;;;;5073547;28;20549;-82
2022/01/28 11:33:44;;;;;;;27.08;4.93;;;;;;;;;;5067022;28;20454;-81
2022/01/28 11:36:11;;;;;;;24.03;4.63;;;;;;;;;;5056746;28;20518;-82
2022/01/28 11:38:39;;;;;;;24.90;5.07;;;;;;;;;;5075321;28;20428;-81
2022/01/28 11:41:13;;;;;;;23.63;5.13;;;;;;;;;;5056464;28;20426;-81
2022/01/28 11:43:52;;;;;;;24.08;5.25;;;7.30;99.90;;;;;;5068920;28;21009;-83
2022/01/28 11:46:19;;;;;;;21.70;4.60;;;;;;;;;;5059436;28;20443;-83
2022/01/28 11:48:52;;;;;;;27.10;4.50;;;;;;;;;;5058792;28;20915;-82
2022/01/28 11:51:20;;;;;;;25.33;5.10;;;;;;;;;;5058045;28;20950;-82
2022/01/28 11:53:57;;;;;;;20.05;4.40;;;;;;;;;;5055235;28;20427;-81
2022/01/28 11:56:24;;;;;;;27.13;4.70;;;;;;;;;;5058284;28;20428;-82
2022/01/28 11:59:04;;;;;;;25.67;5.28;;;;;;;;;;5073682;28;20479;-83
2022/01/28 12:01:36;;;;;;;21.30;4.93;;;;;;;;;;5057222;28;20431;-82
2022/01/28 12:04:24;;;;;;;19.25;4.53;;;7.60;99.90;;;;;;5058880;28;20415;-82
2022/01/28 12:07:15;;;;;;;23.13;5.00;;;;;;;;;;5051311;28;20447;-82
2022/01/28 12:09:52;;;;;;;23.67;4.45;;;;;;;;;;5066743;28;20447;-83
2022/01/28 12:12:37;;;;;;;22.35;4.03;;;;;;;;;;5058448;28;20428;-83
2022/01/28 12:15:06;;;;;;;19.98;4.60;;;;;;;;;;5057866;28;20456;-83
2022/01/28 12:17:36;;;;;;;17.77;4.43;;;;;;;;;;5037966;28;20421;-83
2022/01/28 12:20:11;;;;;;;20.10;4.75;;;;;;;;;;5058582;28;20503;-84
2022/01/28 12:22:56;;;;;;;19.77;4.07;;;;;;;;;;5055985;28;20431;-83
2022/01/28 12:25:37;;;;;;;19.50;3.95;;;;;;;;;;5058037;28;20518;-83
2022/01/28 12:28:25;;;;;;;18.02;3.92;;;;;;;;;;5070943;28;20427;-83
2022/01/28 12:31:01;;;;;;;21.83;4.32;;;;;;;;;;5074069;28;20453;-82
2022/01/28 12:33:31;;;;;;;17.63;4.25;;;;;;;;;;5074644;28;20424;-83
2022/01/28 12:36:00;;;;;;;15.98;3.83;;;;;;;;;;5067620;28;20543;-83
2022/01/28 12:38:30;;;;;;;21.63;4.85;;;;;;;;;;5070622;28;20428;-83
2022/01/28 12:41:04;;;;;;;20.85;5.63;;;;;;;;;;5074471;28;20431;-83
2022/01/28 12:43:31;;;;;;;24.65;4.18;;;;;;;;;;5057272;28;20495;-80
2022/01/28 12:45:57;;;;;;;21.92;4.50;;;;;;;;;;5057881;28;20418;-83
2022/01/28 12:48:23;;;;;;;18.67;4.28;;;8.40;99.90;;;;;;5073348;28;20451;-82
2022/01/28 12:50:50;;;;;;;18.20;3.78;;;;;;;;;;5041778;28;20840;-82
2022/01/28 12:53:31;;;;;;;18.58;4.00;;;;;;;;;;5072942;28;20426;-82
2022/01/28 12:56:01;;;;;;;20.67;4.13;;;;;;;;;;5058135;28;20436;-79
2022/01/28 12:58:46;;;;;;;15.80;3.83;;;;;;;;;;5043135;28;20432;-84
2022/01/28 13:01:13;;;;;;;17.90;3.92;;;8.90;99.90;;;;;;5056615;28;20457;-82
2022/01/28 13:03:57;;;;;;;22.23;4.47;;;;;;;;;;5056004;28;20738;-82
2022/01/28 13:09:01;;;;;;;22.42;3.80;;;;;;;;;;5073559;28;20477;-81
2022/01/28 13:11:28;;;;;;;17.73;3.60;;;;;;;;;;5058114;28;20726;-82
2022/01/28 13:13:56;;;;;;;17.15;4.03;;;;;;;;;;5060000;28;20411;-80
2022/01/28 13:16:32;;;;;;;23.30;4.35;;;;;;;;;;5061578;28;20521;-81
2022/01/28 13:18:59;;;;;;;21.35;4.18;;;;;;;;;;5076351;28;20428;-81
2022/01/28 13:21:25;;;;;;;22.88;4.07;;;;;;;;;;5077021;28;20427;-81
2022/01/28 13:24:06;;;;;;;21.05;3.88;;;;;;;;;;5060010;28;20423;-81
2022/01/28 13:26:33;;;;;;;20.27;4.67;;;;;;;;;;5062100;28;20473;-81
2022/01/28 13:29:10;;;;;;;17.23;3.38;;;;;;;;;;5077410;28;20434;-81
2022/01/28 13:31:36;;;;;;;20.23;4.22;;;;;;;;;;5060180;28;20423;-81
2022/01/28 13:34:05;;;;;;;18.35;3.60;;;;;;;;;;5059391;28;20878;-81
2022/01/28 13:36:44;;;;;;;17.90;3.83;;;;;;;;;;5059707;28;20430;-78
2022/01/28 13:39:18;;;;;;;23.52;4.45;;;;;;;;;;5061799;28;20443;-79
2022/01/28 13:41:47;;;;;;;20.08;3.83;;;;;;;;;;5058516;28;20519;-80
2022/01/28 13:44:20;;;;;;;20.03;3.73;;;;;;;;;;5072493;28;20431;-80
2022/01/28 13:46:54;;;;;;;20.48;4.00;;;;;;;;;;5053858;28;20490;-79
2022/01/28 13:49:20;;;;;;;18.85;3.75;;;8.30;99.90;;;;;;5060484;28;20513;-79
2022/01/28 13:51:47;;;;;;;20.65;3.72;;;;;;;;;;5075233;28;20431;-79
2022/01/28 13:54:19;;;;;;;23.58;3.75;;;;;;;;;;5074315;28;20434;-80
2022/01/28 13:56:47;;;;;;;20.15;4.38;;;;;;;;;;5044180;28;20422;-80
2022/01/28 13:59:24;;;;;;;19.27;3.53;;;8.30;99.90;;;;;;5075895;28;20435;-82
2022/01/28 14:01:52;;;;;;;17.17;3.42;;;;;;;;;;5074336;28;20424;-82
2022/01/28 14:04:22;;;;;;;19.38;3.50;;;;;;;;;;5041757;28;20421;-79
2022/01/28 14:06:48;;;;;;;17.63;3.72;;;;;;;;;;5056537;28;20514;-82
2022/01/28 14:09:19;;;;;;;14.40;3.17;;;8.30;99.90;;;;;;5043973;28;20455;-82
2022/01/28 14:11:48;;;;;;;22.85;3.58;;;;;;;;;;5074028;28;20947;-82
2022/01/28 14:14:24;;;;;;;16.45;4.13;;;;;;;;;;5075836;28;20455;-82
2022/01/28 14:16:52;;;;;;;19.30;3.50;;;;;;;;;;5058361;28;20442;-81
2022/01/28 14:19:18;;;;;;;17.85;3.38;;;;;;;;;;5050102;28;20447;-82
2022/01/28 14:21:45;;;;;;;16.25;3.40;;;;;;;;;;5055100;28;20432;-81
2022/01/28 14:24:16;;;;;;;20.90;3.30;;;;;;;;;;5058907;28;20450;-82
2022/01/28 14:26:43;;;;;;;16.20;3.50;;;;;;;;;;5060725;28;20420;-81
2022/01/28 14:29:25;;;;;;;16.40;3.28;;;;;;;;;;5079745;28;20455;-81
2022/01/28 14:31:53;;;;;;;17.75;3.53;;;;;;;;;;5054477;28;20457;-81
2022/01/28 14:34:19;;;;;;;18.30;3.13;;;;;;;;;;5056048;28;20460;-82
2022/01/28 14:36:45;;;;;;;19.50;3.20;;;;;;;;;;5075739;28;20490;-82
2022/01/28 14:39:14;;;;;;;16.42;3.80;;;;;;;;;;5076166;28;20678;-82
2022/01/28 14:41:41;;;;;;;15.32;2.97;;;;;;;;;;5041748;28;20435;-82
2022/01/28 14:44:07;;;;;;;17.25;3.45;;;8.20;99.90;;;;;;5075256;28;20496;-82
2022/01/28 14:46:34;;;;;;;16.10;3.23;;;8.10;99.90;;;;;;5040961;28;20564;-83
2022/01/28 14:49:04;;;;;;;12.40;3.03;;;;;;;;;;5058938;28;20430;-83
2022/01/28 14:51:30;;;;;;;11.82;3.03;;;;;;;;;;5059272;28;20431;-83
2022/01/28 14:53:56;;;;;;;14.70;3.10;;;;;;;;;;5059719;28;20481;-82
2022/01/28 14:56:22;;;;;;;15.05;3.20;;;;;;;;;;5057799;28;20458;-83
2022/01/28 14:58:49;;;;;;;17.95;3.35;;;;;;;;;;5041457;28;20943;-84
2022/01/28 15:01:15;;;;;;;13.75;3.47;;;8.00;99.90;;;;;;5058299;28;21005;-84
2022/01/28 15:03:42;;;;;;;18.70;3.30;;;;;;;;;;5057452;28;20419;-82
2022/01/28 15:06:08;;;;;;;17.83;3.20;;;;;;;;;;5057808;28;20488;-82
2022/01/28 15:08:40;;;;;;;13.90;3.38;;;;;;;;;;5040947;28;20602;-82
2022/01/28 15:11:12;;;;;;;14.57;3.03;;;;;;;;;;5040843;28;20561;-80
2022/01/28 15:13:38;;;;;;;16.98;2.70;;;;;;;;;;5055560;28;20423;-81
2022/01/28 15:16:04;;;;;;;16.85;3.00;;;;;;;;;;5073532;28;20474;-82
2022/01/28 15:18:30;;;;;;;15.68;3.58;;;7.80;99.90;;;;;;5067638;28;20435;-81
2022/01/28 15:20:56;;;;;;;13.63;2.67;;;;;;;;;;5025223;28;20434;-82
2022/01/28 15:23:22;;;;;;;16.58;3.00;;;;;;;;;;5055480;28;20474;-83
2022/01/28 15:25:48;;;;;;;17.60;3.72;;;;;;;;;;5072992;28;20503;-82
2022/01/28 15:28:18;;;;;;;14.02;3.20;;;;;;;;;;5038115;28;20428;-83
2022/01/28 15:36:14;;;;;;;14.63;3.28;;;;;;;;;;5075627;28;20428;-81
2022/01/28 15:38:41;;;;;;;14.45;3.10;;;;;;;;;;5059113;28;20431;-82
2022/01/28 15:41:08;;;;;;;24.02;5.03;;;;;;;;;;5072089;28;20429;-80
2022/01/28 15:43:35;;;;;;;12.18;4.18;;;;;;;;;;5057543;28;20454;-82
2022/01/28 15:46:01;;;;;;;18.55;4.30;;;;;;;;;;5074615;28;20980;-82
2022/01/28 15:48:27;;;;;;;19.88;3.58;;;;;;;;;;5056650;28;20416;-81
2022/01/28 15:50:55;;;;;;;20.20;3.85;;;;;;;;;;5056841;28;20407;-81
2022/01/28 15:53:23;;;;;;;17.77;3.50;;;;;;;;;;5039674;28;20422;-82
2022/01/28 15:55:49;;;;;;;19.30;3.30;;;;;;;;;;5075765;28;20501;-81
2022/01/28 15:58:15;;;;;;;16.02;3.45;;;;;;;;;;5045670;28;20435;-81
2022/01/28 16:00:42;;;;;;;17.63;3.90;;;;;;;;;;5071327;28;20833;-81
2022/01/28 16:03:08;;;;;;;15.52;3.45;;;;;;;;;;5053943;28;20431;-80
2022/01/28 16:05:36;;;;;;;14.52;3.38;;;;;;;;;;5058288;28;20427;-77